Villa Mazan, Argentina
Current Conditions -  °F | °C
As of 9:00 AM on Saturday 20 Dec 2014 (Local Time) from SANT Reporting Station
Clear Clear  
Wind Chill: 82°   Ceiling: Unl
Heat Index: 86°   Visibility: 6mi
Dew Point: 70°   Wind: 7mph
Humidity: 66%   Direction: 270°W
Pressure: 29.5"   Gusts: NA
Location:  28.67°S, 66.57°W
Report Text: SANT 201200Z 27006KT CAVOK 28/21 Q0999
Loading
Personal Weather Stations






























Interactive Weather Map New forecast layout! Learn more

10-Day Weather Forecast

Advertisements
Track Severe Weather on mobile